createdAt,value
2023-05-06T00:01:13.961Z,11.97
2023-05-06T00:03:41.875Z,11.96
2023-05-06T00:06:09.787Z,11.94
2023-05-06T00:08:37.573Z,11.96
2023-05-06T00:11:05.448Z,11.96
2023-05-06T00:13:33.288Z,11.99
2023-05-06T00:16:00.898Z,12.00
2023-05-06T00:18:28.489Z,12.03
2023-05-06T00:20:56.492Z,12.03
2023-05-06T00:23:24.077Z,12.04
2023-05-06T00:25:54.236Z,12.03
2023-05-06T00:28:21.989Z,12.02
2023-05-06T00:30:49.579Z,12.02
2023-05-06T00:33:17.058Z,12.00
2023-05-06T00:35:44.572Z,11.98
2023-05-06T00:38:14.986Z,11.94
2023-05-06T00:40:42.924Z,11.90
2023-05-06T00:43:11.023Z,11.87
2023-05-06T00:45:38.986Z,11.84
2023-05-06T00:48:07.708Z,11.80
2023-05-06T00:50:35.665Z,11.78
2023-05-06T00:53:05.432Z,11.75
2023-05-06T00:55:33.175Z,11.71
2023-05-06T00:58:01.014Z,11.69
2023-05-06T01:00:28.752Z,11.65
2023-05-06T01:02:56.937Z,11.62
2023-05-06T01:05:29.523Z,11.56
2023-05-06T01:08:23.119Z,11.51
2023-05-06T01:10:59.833Z,11.45
2023-05-06T01:13:59.796Z,11.37
2023-05-06T01:16:30.254Z,11.32
2023-05-06T01:19:00.036Z,11.25
2023-05-06T01:21:31.784Z,11.18
2023-05-06T01:23:59.426Z,11.11
2023-05-06T01:26:27.252Z,11.06
2023-05-06T01:28:56.100Z,11.01
2023-05-06T01:31:27.243Z,10.96
2023-05-06T01:34:24.182Z,10.91
2023-05-06T01:37:36.617Z,10.87
2023-05-06T01:40:07.147Z,10.82
2023-05-06T01:42:36.822Z,10.78
2023-05-06T01:45:07.414Z,10.74
2023-05-06T01:47:36.500Z,10.71
2023-05-06T01:50:05.396Z,10.67
2023-05-06T01:52:34.075Z,10.64
2023-05-06T01:55:02.074Z,10.61
2023-05-06T01:57:29.773Z,10.59
2023-05-06T01:59:57.561Z,10.54
2023-05-06T02:02:25.306Z,10.51
2023-05-06T02:04:53.532Z,10.49
2023-05-06T02:07:21.073Z,10.48
2023-05-06T02:09:48.756Z,10.47
2023-05-06T02:12:16.655Z,10.44
2023-05-06T02:14:44.217Z,10.44
2023-05-06T02:17:11.984Z,10.42
2023-05-06T02:19:39.633Z,10.41
2023-05-06T02:22:07.324Z,10.40
2023-05-06T02:24:35.089Z,10.35
2023-05-06T02:27:03.683Z,10.29
2023-05-06T02:29:31.337Z,10.24
2023-05-06T02:31:58.741Z,10.20
2023-05-06T02:34:26.081Z,10.15
2023-05-06T02:36:53.979Z,10.13
2023-05-06T02:39:23.863Z,10.10
2023-05-06T02:41:51.605Z,10.08
2023-05-06T02:44:18.967Z,10.04
2023-05-06T02:46:46.324Z,10.03
2023-05-06T02:49:14.026Z,10.03
2023-05-06T02:51:42.109Z,10.04
2023-05-06T02:54:09.779Z,10.03
2023-05-06T02:56:37.402Z,10.04
2023-05-06T02:59:05.657Z,10.04
2023-05-06T03:01:33.499Z,10.02
2023-05-06T03:04:01.145Z,10.02
2023-05-06T03:06:28.885Z,10.00
2023-05-06T03:08:56.987Z,10.00
2023-05-06T03:11:25.113Z,9.99
2023-05-06T03:13:54.200Z,9.94
2023-05-06T03:16:21.932Z,9.93
2023-05-06T03:18:51.478Z,9.91
2023-05-06T03:21:19.445Z,9.89
2023-05-06T03:23:47.646Z,9.89
2023-05-06T03:26:15.662Z,9.87
2023-05-06T03:28:44.150Z,9.87
2023-05-06T03:31:12.894Z,9.86
2023-05-06T03:33:40.522Z,9.87
2023-05-06T03:36:09.031Z,9.86
2023-05-06T03:38:36.768Z,9.87
2023-05-06T03:41:05.941Z,9.86
2023-05-06T03:43:33.774Z,9.86
2023-05-06T03:46:03.320Z,9.86
2023-05-06T03:48:31.609Z,9.86
2023-05-06T03:50:59.402Z,9.87
2023-05-06T03:53:27.879Z,9.89
2023-05-06T03:55:55.945Z,9.91
2023-05-06T03:58:24.319Z,9.93
2023-05-06T04:00:51.936Z,9.94
2023-05-06T04:03:19.835Z,9.95
2023-05-06T04:05:50.591Z,9.95
2023-05-06T04:08:20.155Z,9.94
2023-05-06T04:10:49.663Z,9.91
2023-05-06T04:13:19.545Z,9.91
2023-05-06T04:15:49.636Z,9.91
2023-05-06T04:18:19.548Z,9.96
2023-05-06T04:20:50.830Z,10.12
2023-05-06T04:23:19.670Z,10.19
2023-05-06T04:25:48.304Z,10.48
2023-05-06T04:28:19.147Z,11.30
2023-05-06T04:30:48.969Z,12.30
2023-05-06T04:33:16.637Z,13.02
2023-05-06T04:35:53.753Z,13.91
2023-05-06T04:38:22.175Z,14.98
2023-05-06T04:40:50.494Z,15.98
2023-05-06T04:43:18.343Z,16.84
2023-05-06T04:45:48.743Z,17.64
2023-05-06T04:48:19.237Z,18.43
2023-05-06T04:50:47.436Z,18.99
2023-05-06T04:53:15.783Z,19.51
2023-05-06T04:55:43.745Z,20.07
2023-05-06T04:58:11.813Z,20.45
2023-05-06T05:00:39.805Z,20.69
2023-05-06T05:03:10.334Z,21.01
2023-05-06T05:05:40.646Z,21.31
2023-05-06T05:08:12.249Z,21.54
2023-05-06T05:10:43.966Z,21.67
2023-05-06T05:13:14.172Z,21.76
2023-05-06T05:15:42.348Z,21.86
2023-05-06T05:18:10.560Z,21.93
2023-05-06T05:20:38.042Z,21.91
2023-05-06T05:23:07.011Z,21.77
2023-05-06T05:25:35.003Z,21.66
2023-05-06T05:28:02.706Z,21.66
2023-05-06T05:30:31.229Z,21.84
2023-05-06T05:33:02.412Z,21.84
2023-05-06T05:35:31.812Z,21.90
2023-05-06T05:38:07.445Z,22.00
2023-05-06T05:40:38.793Z,22.20
2023-05-06T05:43:11.660Z,22.50
2023-05-06T05:45:40.399Z,22.75
2023-05-06T05:48:09.395Z,23.04
2023-05-06T05:50:37.282Z,23.08
2023-05-06T05:53:06.487Z,23.18
2023-05-06T05:55:39.628Z,23.42
2023-05-06T05:58:07.241Z,23.58
2023-05-06T06:00:35.296Z,23.52
2023-05-06T06:03:07.052Z,23.30
2023-05-06T06:05:35.319Z,23.32
2023-05-06T06:08:03.899Z,23.57
2023-05-06T06:10:32.782Z,24.04
2023-05-06T06:13:03.408Z,24.23
2023-05-06T06:15:32.106Z,24.13
2023-05-06T06:18:02.641Z,23.87
2023-05-06T06:20:31.131Z,23.63
2023-05-06T06:23:00.202Z,23.69
2023-05-06T06:25:28.024Z,23.91
2023-05-06T06:27:57.361Z,24.08
2023-05-06T06:30:33.738Z,24.52
2023-05-06T06:33:01.856Z,25.14
2023-05-06T06:35:29.762Z,25.22
2023-05-06T06:37:59.276Z,25.27
2023-05-06T06:40:27.071Z,25.65
2023-05-06T06:42:54.896Z,26.01
2023-05-06T06:45:45.522Z,26.39
2023-05-06T06:48:13.480Z,26.74
2023-05-06T06:50:41.315Z,26.61
2023-05-06T06:53:10.611Z,26.12
2023-05-06T06:55:38.016Z,26.05
2023-05-06T06:58:08.428Z,25.99
2023-05-06T07:00:36.541Z,26.01
2023-05-06T07:03:04.354Z,25.67
2023-05-06T07:05:33.877Z,25.22
2023-05-06T07:08:01.497Z,24.88
2023-05-06T07:10:36.770Z,24.44
2023-05-06T07:13:06.060Z,24.20
2023-05-06T07:15:33.912Z,23.83
2023-05-06T07:18:01.800Z,23.41
2023-05-06T07:20:30.329Z,23.16
2023-05-06T07:22:59.255Z,23.00
2023-05-06T07:25:27.640Z,23.08
2023-05-06T07:27:55.400Z,23.35
2023-05-06T07:30:24.193Z,23.76
2023-05-06T07:32:55.880Z,24.00
2023-05-06T07:35:33.248Z,24.19
2023-05-06T07:38:01.109Z,24.44
2023-05-06T07:40:30.666Z,24.65
2023-05-06T07:42:58.315Z,24.86
2023-05-06T07:45:26.095Z,25.12
2023-05-06T07:47:53.999Z,25.46
2023-05-06T07:50:31.564Z,25.72
2023-05-06T07:53:08.599Z,25.75
2023-05-06T07:55:37.296Z,25.76
2023-05-06T07:58:05.260Z,25.27
2023-05-06T08:00:36.165Z,25.07
2023-05-06T08:03:04.676Z,24.84
2023-05-06T08:05:32.715Z,24.94
2023-05-06T08:08:02.189Z,24.97
2023-05-06T08:10:30.271Z,25.05
2023-05-06T08:12:58.284Z,25.19
2023-05-06T08:15:26.367Z,25.25
2023-05-06T08:17:55.257Z,25.32
2023-05-06T08:20:23.231Z,25.46
2023-05-06T08:22:52.849Z,25.63
2023-05-06T08:25:20.872Z,25.68
2023-05-06T08:27:49.057Z,25.88
2023-05-06T08:30:26.840Z,25.93
2023-05-06T08:33:00.241Z,25.62
2023-05-06T08:35:27.876Z,25.36
2023-05-06T08:37:55.951Z,25.28
2023-05-06T08:40:27.615Z,24.96
2023-05-06T08:42:57.427Z,24.94
2023-05-06T08:45:26.777Z,24.88
2023-05-06T08:47:55.035Z,24.93
2023-05-06T08:50:23.916Z,25.14
2023-05-06T08:52:52.099Z,25.23
2023-05-06T08:55:21.851Z,25.50
2023-05-06T08:57:52.718Z,25.66
2023-05-06T09:00:20.550Z,25.77
2023-05-06T09:02:48.890Z,25.95
2023-05-06T09:05:17.217Z,26.15
2023-05-06T09:07:44.867Z,26.05
2023-05-06T09:10:14.020Z,25.82
2023-05-06T09:12:41.898Z,25.74
2023-05-06T09:15:11.516Z,25.67
2023-05-06T09:17:39.743Z,25.72
2023-05-06T09:20:17.529Z,25.84
2023-05-06T09:22:48.570Z,26.11
2023-05-06T09:25:18.284Z,26.07
2023-05-06T09:27:45.739Z,26.25
2023-05-06T09:30:14.687Z,26.28
2023-05-06T09:32:42.342Z,25.91
2023-05-06T09:35:11.443Z,25.59
2023-05-06T09:37:39.750Z,25.76
2023-05-06T09:40:08.818Z,25.74
2023-05-06T09:42:36.402Z,25.53
2023-05-06T09:45:10.748Z,25.52
2023-05-06T09:47:41.955Z,25.71
2023-05-06T09:50:13.602Z,25.61
2023-05-06T09:52:48.316Z,25.52
2023-05-06T09:55:20.029Z,25.37
2023-05-06T09:57:50.894Z,25.32
2023-05-06T10:00:21.794Z,25.54
2023-05-06T10:02:50.527Z,25.84
2023-05-06T10:05:18.757Z,26.12
2023-05-06T10:07:49.278Z,26.27
2023-05-06T10:10:18.420Z,25.75
2023-05-06T10:12:46.195Z,25.78
2023-05-06T10:15:14.049Z,25.62
2023-05-06T10:17:46.140Z,25.37
2023-05-06T10:20:14.746Z,25.50
2023-05-06T10:23:26.351Z,25.37
2023-05-06T10:25:58.303Z,25.16
2023-05-06T10:28:31.047Z,25.31
2023-05-06T10:31:04.788Z,25.51
2023-05-06T10:33:33.320Z,25.53
2023-05-06T10:36:23.438Z,25.48
2023-05-06T10:38:59.629Z,25.58
2023-05-06T10:41:28.821Z,25.45
2023-05-06T10:43:59.722Z,25.13
2023-05-06T10:46:30.143Z,24.72
2023-05-06T10:49:13.292Z,24.18
2023-05-06T10:51:43.207Z,23.68
2023-05-06T10:54:24.016Z,23.37
2023-05-06T10:56:57.720Z,23.26
2023-05-06T10:59:27.989Z,23.28
2023-05-06T11:02:07.432Z,23.16
2023-05-06T11:04:37.011Z,23.01
2023-05-06T11:07:15.764Z,22.78
2023-05-06T11:10:06.305Z,22.68
2023-05-06T11:12:52.141Z,22.64
2023-05-06T11:15:39.388Z,22.52
2023-05-06T11:18:34.032Z,22.50
2023-05-06T11:21:08.969Z,22.61
2023-05-06T11:23:51.969Z,22.82
2023-05-06T11:26:21.318Z,23.02
2023-05-06T11:28:53.183Z,23.19
2023-05-06T11:31:26.088Z,23.37
2023-05-06T11:34:00.391Z,23.23
2023-05-06T11:36:34.909Z,22.85
2023-05-06T11:39:10.591Z,22.55
2023-05-06T11:41:44.676Z,22.16
2023-05-06T11:44:16.086Z,21.93
2023-05-06T11:46:47.313Z,21.80
2023-05-06T11:49:14.908Z,21.63
2023-05-06T11:51:48.169Z,21.43
2023-05-06T11:54:19.433Z,21.24
2023-05-06T11:56:53.733Z,21.20
2023-05-06T11:59:33.558Z,21.14
2023-05-06T12:02:12.230Z,21.00
2023-05-06T12:04:49.670Z,20.90
2023-05-06T12:07:17.982Z,20.83
2023-05-06T12:09:50.502Z,20.78
2023-05-06T12:12:24.950Z,20.69
2023-05-06T12:14:53.659Z,20.63
2023-05-06T12:17:22.260Z,20.66
2023-05-06T12:19:55.256Z,20.58
2023-05-06T12:22:26.320Z,20.49
2023-05-06T12:24:54.288Z,20.57
2023-05-06T12:27:34.071Z,20.69
2023-05-06T12:30:03.899Z,20.85
2023-05-06T12:32:31.927Z,21.02
2023-05-06T12:35:06.468Z,21.26
2023-05-06T12:37:38.741Z,21.40
2023-05-06T12:40:15.230Z,21.61
2023-05-06T12:42:43.100Z,21.69
2023-05-06T12:45:15.376Z,21.65
2023-05-06T12:47:57.660Z,21.58
2023-05-06T12:50:41.172Z,21.47
2023-05-06T12:53:12.720Z,21.29
2023-05-06T12:55:41.616Z,21.02
2023-05-06T12:58:19.028Z,20.91
2023-05-06T13:00:46.877Z,20.78
2023-05-06T13:03:15.292Z,20.59
2023-05-06T13:05:46.302Z,20.46
2023-05-06T13:08:16.431Z,20.41
2023-05-06T13:10:44.202Z,20.36
2023-05-06T13:13:13.582Z,20.29
2023-05-06T13:15:41.245Z,20.26
2023-05-06T13:18:09.296Z,20.18
2023-05-06T13:20:36.974Z,20.16
2023-05-06T13:23:04.470Z,20.21
2023-05-06T13:25:32.017Z,20.22
2023-05-06T13:27:59.499Z,20.27
2023-05-06T13:30:27.276Z,20.24
2023-05-06T13:32:54.818Z,20.20
2023-05-06T13:35:22.477Z,20.02
2023-05-06T13:37:50.313Z,20.08
2023-05-06T13:40:18.093Z,20.06
2023-05-06T13:42:46.060Z,20.09
2023-05-06T13:45:14.251Z,20.11
2023-05-06T13:47:42.544Z,20.05
2023-05-06T13:50:10.969Z,20.07
2023-05-06T13:52:38.863Z,20.14
2023-05-06T13:55:08.702Z,20.14
2023-05-06T13:57:36.474Z,20.20
2023-05-06T14:00:06.673Z,20.27
2023-05-06T14:02:34.520Z,20.37
2023-05-06T14:05:02.304Z,20.42
2023-05-06T14:07:30.096Z,20.50
2023-05-06T14:09:58.015Z,20.52
2023-05-06T14:12:25.712Z,20.60
2023-05-06T14:14:54.965Z,20.69
2023-05-06T14:17:22.611Z,20.71
2023-05-06T14:19:50.219Z,20.71
2023-05-06T14:22:18.137Z,20.72
2023-05-06T14:24:45.870Z,20.71
2023-05-06T14:27:13.782Z,20.78
2023-05-06T14:29:42.619Z,20.78
2023-05-06T14:32:10.472Z,20.78
2023-05-06T14:34:38.423Z,20.79
2023-05-06T14:37:06.227Z,20.72
2023-05-06T14:39:33.647Z,20.79
2023-05-06T14:42:01.352Z,20.83
2023-05-06T14:44:29.038Z,20.85
2023-05-06T14:46:56.723Z,20.85
2023-05-06T14:49:24.383Z,20.91
2023-05-06T14:51:51.978Z,20.98
2023-05-06T14:54:19.686Z,21.11
2023-05-06T14:56:48.928Z,21.05
2023-05-06T14:59:18.602Z,20.97
2023-05-06T15:01:46.233Z,20.86
2023-05-06T15:04:13.737Z,20.77
2023-05-06T15:06:41.712Z,20.65
2023-05-06T15:09:09.833Z,20.55
2023-05-06T15:11:37.746Z,20.50
2023-05-06T15:14:05.580Z,20.49
2023-05-06T15:16:33.516Z,20.46
2023-05-06T15:19:01.357Z,20.41
2023-05-06T15:21:29.072Z,20.48
2023-05-06T15:23:56.972Z,20.49
2023-05-06T15:26:24.702Z,20.55
2023-05-06T15:28:52.267Z,20.56
2023-05-06T15:31:20.861Z,20.57
2023-05-06T15:33:48.763Z,20.55
2023-05-06T15:36:16.300Z,20.49
2023-05-06T15:38:59.797Z,20.51
2023-05-06T15:41:29.801Z,20.44
2023-05-06T15:44:02.591Z,20.34
2023-05-06T15:46:31.498Z,20.30
2023-05-06T15:49:15.665Z,20.21
2023-05-06T15:51:30.907Z,20.23
2023-05-06T15:53:58.547Z,20.23
2023-05-06T15:56:26.993Z,20.16
2023-05-06T15:58:55.337Z,20.14
2023-05-06T16:01:48.008Z,20.13
2023-05-06T16:03:53.072Z,20.15
2023-05-06T16:06:21.092Z,20.14
2023-05-06T16:08:48.415Z,20.12
2023-05-06T16:11:16.010Z,20.13
2023-05-06T16:13:44.021Z,20.09
2023-05-06T16:16:12.720Z,20.05
2023-05-06T16:18:40.214Z,20.02
2023-05-06T16:21:07.505Z,20.04
2023-05-06T16:23:36.210Z,20.04
2023-05-06T16:26:04.291Z,20.05
2023-05-06T16:28:31.954Z,20.02
2023-05-06T16:31:03.163Z,19.95
2023-05-06T16:33:30.693Z,19.88
2023-05-06T16:36:02.322Z,19.87
2023-05-06T16:38:31.535Z,19.85
2023-05-06T16:40:59.334Z,19.78
2023-05-06T16:43:40.023Z,19.63
2023-05-06T16:46:09.275Z,19.54
2023-05-06T16:48:37.435Z,19.45
2023-05-06T16:51:09.631Z,19.37
2023-05-06T16:53:37.103Z,19.28
2023-05-06T16:56:50.879Z,19.21
2023-05-06T16:59:04.313Z,19.17
2023-05-06T17:01:32.012Z,19.05
2023-05-06T17:03:59.790Z,19.00
2023-05-06T17:06:38.705Z,18.95
2023-05-06T17:09:06.425Z,18.86
2023-05-06T17:11:34.203Z,18.78
2023-05-06T17:14:01.659Z,18.69
2023-05-06T17:16:29.450Z,18.60
2023-05-06T17:18:56.846Z,18.53
2023-05-06T17:21:24.352Z,18.47
2023-05-06T17:23:53.803Z,18.42
2023-05-06T17:26:21.849Z,18.36
2023-05-06T17:28:50.505Z,18.34
2023-05-06T17:31:18.452Z,18.30
2023-05-06T17:33:47.487Z,18.25
2023-05-06T17:36:17.510Z,18.21
2023-05-06T17:38:45.556Z,18.16
2023-05-06T17:41:13.241Z,18.07
2023-05-06T17:43:42.452Z,18.01
2023-05-06T17:46:10.275Z,17.97
2023-05-06T17:48:38.271Z,17.93
2023-05-06T17:51:05.979Z,17.91
2023-05-06T17:53:33.573Z,17.88
2023-05-06T17:56:01.248Z,17.86
2023-05-06T17:58:28.991Z,17.86
2023-05-06T18:00:57.067Z,17.86
2023-05-06T18:03:25.277Z,17.87
2023-05-06T18:05:52.895Z,17.88
2023-05-06T18:08:20.405Z,17.84
2023-05-06T18:10:50.161Z,17.81
2023-05-06T18:13:18.384Z,17.74
2023-05-06T18:15:48.058Z,17.66
2023-05-06T18:18:16.055Z,17.57
2023-05-06T18:20:43.624Z,17.50
2023-05-06T18:23:11.406Z,17.43
2023-05-06T18:25:39.693Z,17.35
2023-05-06T18:28:08.100Z,17.30
2023-05-06T18:30:36.082Z,17.23
2023-05-06T18:33:03.790Z,17.16
2023-05-06T18:35:31.523Z,17.11
2023-05-06T18:37:59.087Z,17.05
2023-05-06T18:40:28.608Z,16.99
2023-05-06T18:42:56.223Z,16.93
2023-05-06T18:45:28.013Z,16.87
2023-05-06T18:47:55.633Z,16.83
2023-05-06T18:50:24.169Z,16.79
2023-05-06T18:52:53.549Z,16.75
2023-05-06T18:55:24.617Z,16.73
2023-05-06T18:57:52.343Z,16.70
2023-05-06T19:00:21.873Z,16.67
2023-05-06T19:02:51.507Z,16.65
2023-05-06T19:05:20.443Z,16.63
2023-05-06T19:07:50.672Z,16.63
2023-05-06T19:10:18.766Z,16.62
2023-05-06T19:12:46.414Z,16.60
2023-05-06T19:15:16.902Z,16.57
2023-05-06T19:17:47.264Z,16.57
2023-05-06T19:20:14.852Z,16.52
2023-05-06T19:22:42.695Z,16.47
2023-05-06T19:25:11.110Z,16.45
2023-05-06T19:27:41.221Z,16.44
2023-05-06T19:30:09.737Z,16.42
2023-05-06T19:32:37.980Z,16.40
2023-05-06T19:35:10.453Z,16.38
2023-05-06T19:37:38.386Z,16.36
2023-05-06T19:40:07.421Z,16.33
2023-05-06T19:42:35.410Z,16.31
2023-05-06T19:45:10.197Z,16.29
2023-05-06T19:47:38.337Z,16.27
2023-05-06T19:50:07.324Z,16.21
2023-05-06T19:52:41.321Z,16.18
2023-05-06T19:55:10.389Z,16.15
2023-05-06T19:57:38.009Z,16.14
2023-05-06T20:00:13.848Z,16.10
2023-05-06T20:02:44.062Z,16.07
2023-05-06T20:05:12.480Z,16.00
2023-05-06T20:07:40.853Z,15.94
2023-05-06T20:10:10.036Z,15.88
2023-05-06T20:12:37.776Z,15.83
2023-05-06T20:15:06.920Z,15.78
2023-05-06T20:17:39.214Z,15.74
2023-05-06T20:20:10.593Z,15.71
2023-05-06T20:22:39.753Z,15.70
2023-05-06T20:25:18.145Z,15.68
2023-05-06T20:27:45.946Z,15.67
2023-05-06T20:30:13.872Z,15.66
2023-05-06T20:32:41.413Z,15.64
2023-05-06T20:35:09.521Z,15.62
2023-05-06T20:37:38.157Z,15.60
2023-05-06T20:40:07.325Z,15.56
2023-05-06T20:42:35.105Z,15.54
2023-05-06T20:45:05.438Z,15.51
2023-05-06T20:47:33.062Z,15.49
2023-05-06T20:50:01.192Z,15.47
2023-05-06T20:52:29.031Z,15.46
2023-05-06T20:54:57.707Z,15.45
2023-05-06T20:57:25.400Z,15.44
2023-05-06T20:59:55.660Z,15.43
2023-05-06T21:02:23.394Z,15.43
2023-05-06T21:04:51.263Z,15.44
2023-05-06T21:07:18.867Z,15.44
2023-05-06T21:09:46.634Z,15.42
2023-05-06T21:12:20.575Z,15.40
2023-05-06T21:14:48.304Z,15.39
2023-05-06T21:17:16.008Z,15.35
2023-05-06T21:19:43.646Z,15.34
2023-05-06T21:22:12.183Z,15.29
2023-05-06T21:24:39.837Z,15.27
2023-05-06T21:27:07.872Z,15.23
2023-05-06T21:29:36.524Z,15.19
2023-05-06T21:32:04.756Z,15.16
2023-05-06T21:34:32.496Z,15.12
2023-05-06T21:37:00.337Z,15.08
2023-05-06T21:39:28.167Z,15.01
2023-05-06T21:41:56.004Z,15.00
2023-05-06T21:44:23.549Z,14.99
2023-05-06T21:46:51.513Z,14.99
2023-05-06T21:49:21.548Z,15.00
2023-05-06T21:51:49.253Z,15.00
2023-05-06T21:54:17.231Z,15.01
2023-05-06T21:56:44.818Z,15.00
2023-05-06T21:59:12.810Z,14.99
2023-05-06T22:01:41.150Z,14.99
2023-05-06T22:04:12.360Z,14.97
2023-05-06T22:06:40.425Z,14.96
2023-05-06T22:09:09.312Z,14.95
2023-05-06T22:11:38.272Z,14.94
2023-05-06T22:14:06.906Z,14.91
2023-05-06T22:16:37.322Z,14.90
2023-05-06T22:19:05.732Z,14.90
2023-05-06T22:21:36.904Z,14.89
2023-05-06T22:24:05.582Z,14.88
2023-05-06T22:26:33.530Z,14.88
2023-05-06T22:29:00.873Z,14.86
2023-05-06T22:31:28.534Z,14.85
2023-05-06T22:33:57.423Z,14.83
2023-05-06T22:36:28.851Z,14.83
2023-05-06T22:38:56.393Z,14.80
2023-05-06T22:41:24.228Z,14.79
2023-05-06T22:43:52.230Z,14.75
2023-05-06T22:46:20.713Z,14.72
2023-05-06T22:48:48.571Z,14.69
2023-05-06T22:51:16.840Z,14.63
2023-05-06T22:53:44.751Z,14.60
2023-05-06T22:56:12.194Z,14.55
2023-05-06T22:58:39.709Z,14.50
2023-05-06T23:01:07.757Z,14.47
2023-05-06T23:03:36.200Z,14.44
2023-05-06T23:06:05.470Z,14.43
2023-05-06T23:08:33.443Z,14.39
2023-05-06T23:11:01.366Z,14.39
2023-05-06T23:13:30.710Z,14.39
2023-05-06T23:16:00.088Z,14.36
2023-05-06T23:18:28.013Z,14.35
2023-05-06T23:21:00.018Z,14.32
2023-05-06T23:23:31.141Z,14.31
2023-05-06T23:26:00.487Z,14.30
2023-05-06T23:28:30.219Z,14.26
2023-05-06T23:30:57.923Z,14.21
2023-05-06T23:33:27.439Z,14.15
2023-05-06T23:35:55.295Z,14.11
2023-05-06T23:38:22.883Z,14.07
2023-05-06T23:40:50.653Z,14.03
2023-05-06T23:43:18.417Z,14.01
2023-05-06T23:45:46.311Z,13.96
2023-05-06T23:48:18.397Z,13.93
2023-05-06T23:50:49.629Z,13.88
2023-05-06T23:53:21.006Z,13.87
2023-05-06T23:55:50.742Z,13.84
2023-05-06T23:58:18.748Z,13.81
